createdAt,value
2019-02-22T00:00:25.112Z,28.10
2019-02-22T00:02:52.016Z,25.67
2019-02-22T00:05:18.832Z,27.10
2019-02-22T00:07:45.892Z,25.57
2019-02-22T00:10:12.724Z,29.57
2019-02-22T00:12:39.540Z,26.80
2019-02-22T00:15:06.928Z,26.67
2019-02-22T00:17:33.841Z,26.93
2019-02-22T00:20:00.677Z,28.50
2019-02-22T00:22:27.505Z,28.50
2019-02-22T00:24:54.720Z,30.52
2019-02-22T00:27:21.632Z,28.52
2019-02-22T00:29:49.281Z,28.50
2019-02-22T00:32:16.191Z,28.47
2019-02-22T00:34:43.014Z,30.20
2019-02-22T00:37:09.994Z,28.60
2019-02-22T00:39:36.820Z,29.73
2019-02-22T00:42:03.664Z,29.87
2019-02-22T00:44:30.732Z,30.82
2019-02-22T00:46:57.905Z,30.30
2019-02-22T00:49:25.037Z,32.53
2019-02-22T00:51:52.296Z,32.67
2019-02-22T00:54:19.289Z,34.23
2019-02-22T00:56:46.189Z,33.00
2019-02-22T00:59:13.005Z,31.33
2019-02-22T01:01:40.082Z,33.18
2019-02-22T01:04:07.144Z,32.10
2019-02-22T01:06:34.073Z,34.15
2019-02-22T01:09:00.897Z,32.15
2019-02-22T01:11:27.728Z,33.25
2019-02-22T01:13:54.669Z,33.37
2019-02-22T01:16:21.870Z,36.20
2019-02-22T01:18:48.921Z,33.40
2019-02-22T01:21:15.756Z,33.40
2019-02-22T01:23:42.812Z,35.40
2019-02-22T01:26:09.750Z,34.25
2019-02-22T01:28:36.745Z,31.87
2019-02-22T01:31:03.920Z,34.65
2019-02-22T01:33:30.972Z,36.77
2019-02-22T01:35:58.090Z,37.07
2019-02-22T01:38:25.148Z,33.88
2019-02-22T01:40:52.281Z,36.07
2019-02-22T01:43:19.220Z,38.00
2019-02-22T01:45:46.130Z,33.60
2019-02-22T01:48:13.066Z,39.53
2019-02-22T01:50:39.981Z,37.10
2019-02-22T01:53:07.321Z,36.25
2019-02-22T01:55:34.252Z,36.15
2019-02-22T01:58:01.090Z,37.37
2019-02-22T02:00:28.388Z,39.27
2019-02-22T02:02:55.564Z,40.00
2019-02-22T02:05:22.649Z,40.12
2019-02-22T02:07:50.160Z,39.83
2019-02-22T02:10:16.978Z,39.20
2019-02-22T02:12:44.359Z,38.85
2019-02-22T02:15:11.290Z,41.37
2019-02-22T02:17:38.493Z,41.77
2019-02-22T02:20:06.479Z,42.83
2019-02-22T02:22:33.473Z,38.83
2019-02-22T02:25:00.422Z,43.57
2019-02-22T02:27:27.572Z,41.00
2019-02-22T02:29:54.456Z,42.83
2019-02-22T02:32:21.289Z,40.17
2019-02-22T02:34:48.348Z,44.27
2019-02-22T02:37:15.286Z,42.80
2019-02-22T02:39:42.412Z,40.23
2019-02-22T02:42:09.221Z,40.43
2019-02-22T02:44:36.046Z,41.03
2019-02-22T02:47:03.060Z,39.80
2019-02-22T02:49:30.149Z,41.40
2019-02-22T02:51:57.312Z,40.87
2019-02-22T02:54:24.126Z,38.97
2019-02-22T02:56:51.037Z,41.87
2019-02-22T02:59:18.121Z,40.03
2019-02-22T03:01:45.179Z,41.37
2019-02-22T03:04:12.175Z,42.10
2019-02-22T03:06:50.253Z,39.73
2019-02-22T03:09:17.448Z,40.38
2019-02-22T03:11:44.609Z,41.13
2019-02-22T03:14:11.934Z,40.43
2019-02-22T03:16:38.789Z,40.90
2019-02-22T03:19:05.601Z,41.20
2019-02-22T03:21:32.429Z,40.33
2019-02-22T03:23:59.801Z,39.97
2019-02-22T03:26:26.718Z,39.50
2019-02-22T03:28:53.892Z,41.10
2019-02-22T03:31:21.151Z,38.60
2019-02-22T03:33:47.975Z,39.13
2019-02-22T03:36:15.017Z,40.77
2019-02-22T03:38:41.944Z,36.67
2019-02-22T03:41:09.032Z,36.70
2019-02-22T03:43:35.844Z,38.57
2019-02-22T03:46:02.874Z,40.07
2019-02-22T03:48:29.953Z,37.67
2019-02-22T03:50:56.933Z,38.53
2019-02-22T03:53:33.182Z,37.77
2019-02-22T03:56:00.234Z,39.17
2019-02-22T03:58:27.136Z,37.13
2019-02-22T04:00:54.441Z,37.80
2019-02-22T04:03:21.961Z,36.60
2019-02-22T04:05:48.885Z,36.97
2019-02-22T04:08:15.970Z,39.88
2019-02-22T04:10:43.119Z,37.93
2019-02-22T04:13:10.277Z,39.47
2019-02-22T04:15:37.102Z,37.90
2019-02-22T04:18:04.407Z,39.07
2019-02-22T04:20:31.532Z,39.67
2019-02-22T04:22:58.601Z,37.05
2019-02-22T04:25:25.419Z,39.03
2019-02-22T04:27:52.726Z,38.87
2019-02-22T04:30:19.765Z,38.90
2019-02-22T04:32:46.564Z,41.53
2019-02-22T04:35:13.636Z,38.83
2019-02-22T04:37:40.713Z,38.30
2019-02-22T04:40:07.751Z,40.07
2019-02-22T04:42:34.565Z,38.10
2019-02-22T04:45:01.643Z,37.08
2019-02-22T04:47:28.560Z,38.47
2019-02-22T04:49:55.762Z,37.80
2019-02-22T04:52:22.692Z,37.73
2019-02-22T04:54:49.937Z,39.27
2019-02-22T04:57:16.766Z,38.00
2019-02-22T04:59:44.025Z,40.63
2019-02-22T05:02:11.356Z,40.60
2019-02-22T05:04:38.626Z,37.53
2019-02-22T05:07:05.542Z,38.80
2019-02-22T05:09:32.621Z,41.05
2019-02-22T05:12:10.421Z,39.50
2019-02-22T05:14:28.673Z,40.00
2019-02-22T05:16:55.503Z,40.33
2019-02-22T05:19:22.310Z,40.83
2019-02-22T05:21:49.136Z,38.23
2019-02-22T05:24:16.212Z,40.93
2019-02-22T05:26:43.118Z,37.73
2019-02-22T05:29:09.936Z,39.63
2019-02-22T05:31:36.754Z,36.57
2019-02-22T05:34:03.677Z,38.30
2019-02-22T05:36:30.739Z,38.77
2019-02-22T05:38:58.425Z,38.17
2019-02-22T05:41:25.688Z,38.58
2019-02-22T05:43:52.939Z,37.40
2019-02-22T05:46:20.516Z,36.90
2019-02-22T05:48:47.705Z,37.27
2019-02-22T05:51:14.772Z,37.13
2019-02-22T05:53:42.184Z,37.10
2019-02-22T05:56:09.365Z,38.50
2019-02-22T05:58:36.704Z,38.93
2019-02-22T06:01:06.628Z,39.47
2019-02-22T06:03:32.545Z,37.43
2019-02-22T06:05:59.357Z,36.90
2019-02-22T06:08:26.196Z,39.50
2019-02-22T06:10:53.461Z,37.60
2019-02-22T06:13:20.285Z,38.80
2019-02-22T06:15:47.097Z,36.53
2019-02-22T06:18:13.935Z,36.90
2019-02-22T06:20:41.088Z,36.40
2019-02-22T06:23:08.151Z,37.57
2019-02-22T06:25:35.074Z,36.40
2019-02-22T06:28:01.984Z,37.40
2019-02-22T06:30:28.818Z,36.10
2019-02-22T06:32:55.713Z,34.30
2019-02-22T06:35:22.553Z,34.00
2019-02-22T06:37:49.709Z,35.93
2019-02-22T06:40:16.615Z,35.23
2019-02-22T06:42:46.119Z,35.03
2019-02-22T06:45:12.302Z,34.97
2019-02-22T06:47:39.400Z,32.37
2019-02-22T06:50:06.485Z,32.80
2019-02-22T06:52:33.296Z,30.37
2019-02-22T06:55:00.920Z,31.33
2019-02-22T06:57:27.826Z,30.80
2019-02-22T06:59:54.756Z,31.07
2019-02-22T07:02:21.601Z,31.03
2019-02-22T07:04:48.846Z,31.37
2019-02-22T07:07:15.660Z,30.87
2019-02-22T07:09:42.744Z,29.73
2019-02-22T07:12:13.836Z,32.70
2019-02-22T07:14:40.660Z,32.67
2019-02-22T07:17:07.479Z,35.87
2019-02-22T07:19:34.409Z,34.63
2019-02-22T07:22:01.733Z,34.70
2019-02-22T07:24:28.677Z,35.40
2019-02-22T07:26:55.497Z,33.83
2019-02-22T07:29:22.398Z,34.20
2019-02-22T07:31:49.505Z,37.50
2019-02-22T07:34:16.569Z,33.63
2019-02-22T07:36:43.525Z,35.23
2019-02-22T07:39:10.580Z,36.07
2019-02-22T07:41:37.414Z,34.90
2019-02-22T07:44:04.844Z,36.70
2019-02-22T07:46:31.768Z,36.70
2019-02-22T07:48:58.949Z,36.23
2019-02-22T07:51:26.373Z,38.23
2019-02-22T07:53:53.432Z,35.20
2019-02-22T07:56:20.264Z,36.43
2019-02-22T07:58:47.329Z,34.70
2019-02-22T08:01:14.525Z,34.47
2019-02-22T08:03:41.429Z,33.37
2019-02-22T08:06:08.729Z,33.90
2019-02-22T08:08:35.540Z,32.83
2019-02-22T08:11:02.856Z,33.93
2019-02-22T08:13:30.017Z,32.53
2019-02-22T08:15:57.011Z,32.43
2019-02-22T08:18:23.865Z,27.85
2019-02-22T08:20:50.832Z,25.90
2019-02-22T08:23:17.890Z,25.87
2019-02-22T08:25:44.716Z,21.83
2019-02-22T08:28:11.530Z,22.87
2019-02-22T08:30:38.512Z,24.30
2019-02-22T08:33:05.515Z,23.57
2019-02-22T08:35:32.332Z,21.90
2019-02-22T08:37:59.194Z,20.30
2019-02-22T08:40:26.008Z,20.83
2019-02-22T08:42:52.847Z,18.97
2019-02-22T08:45:19.958Z,17.90
2019-02-22T08:47:47.047Z,17.67
2019-02-22T08:50:14.627Z,18.17
2019-02-22T08:52:41.569Z,15.13
2019-02-22T08:55:08.820Z,15.23
2019-02-22T08:57:35.993Z,14.47
2019-02-22T09:00:03.005Z,13.50
2019-02-22T09:02:29.927Z,14.37
2019-02-22T09:04:57.096Z,11.10
2019-02-22T09:07:23.933Z,8.43
2019-02-22T09:09:51.529Z,9.57
2019-02-22T09:12:18.336Z,7.87
2019-02-22T09:14:45.148Z,7.13
2019-02-22T09:17:12.179Z,7.60
2019-02-22T09:19:39.264Z,6.60
2019-02-22T09:22:06.187Z,10.90
2019-02-22T09:24:33.316Z,7.80
2019-02-22T09:27:00.517Z,5.90
2019-02-22T09:29:27.584Z,5.40
2019-02-22T09:31:54.493Z,4.80
2019-02-22T09:34:21.320Z,4.77
2019-02-22T09:36:48.129Z,4.30
2019-02-22T09:39:15.202Z,5.17
2019-02-22T09:41:42.280Z,3.87
2019-02-22T09:44:09.720Z,4.10
2019-02-22T09:46:36.795Z,5.17
2019-02-22T09:49:03.779Z,3.67
2019-02-22T09:51:30.860Z,4.50
2019-02-22T09:53:57.927Z,5.77
2019-02-22T09:56:24.843Z,5.23
2019-02-22T09:58:51.666Z,7.83
2019-02-22T10:01:18.943Z,6.43
2019-02-22T10:03:45.771Z,7.50
2019-02-22T10:06:12.714Z,5.70
2019-02-22T10:08:39.546Z,6.50
2019-02-22T10:11:06.657Z,5.97
2019-02-22T10:13:33.736Z,4.27
2019-02-22T10:16:00.589Z,5.13
2019-02-22T10:18:27.696Z,4.70
2019-02-22T10:20:54.772Z,3.70
2019-02-22T10:23:21.576Z,3.33
2019-02-22T10:25:48.407Z,3.80
2019-02-22T10:28:18.099Z,3.90
2019-02-22T10:30:44.248Z,3.40
2019-02-22T10:33:11.048Z,3.20
2019-02-22T10:35:38.121Z,3.60
2019-02-22T10:38:05.176Z,3.80
2019-02-22T10:40:32.309Z,3.20
2019-02-22T10:42:59.129Z,4.07
2019-02-22T10:45:25.958Z,4.33
2019-02-22T10:47:52.776Z,4.60
2019-02-22T10:50:20.237Z,4.70
2019-02-22T10:52:47.081Z,4.27
2019-02-22T10:55:14.310Z,3.83
2019-02-22T10:57:41.230Z,4.40
2019-02-22T11:00:09.977Z,4.30
2019-02-22T11:02:39.228Z,4.70
2019-02-22T11:05:06.594Z,4.83
2019-02-22T11:07:33.789Z,5.23
2019-02-22T11:10:00.618Z,5.40
2019-02-22T11:12:27.493Z,5.67
2019-02-22T11:14:54.665Z,10.00
2019-02-22T11:17:21.749Z,6.67
2019-02-22T11:19:48.836Z,6.90
2019-02-22T11:22:16.045Z,7.60
2019-02-22T11:24:42.857Z,6.73
2019-02-22T11:27:09.785Z,5.73
2019-02-22T11:29:36.703Z,5.97
2019-02-22T11:32:04.008Z,6.00
2019-02-22T11:34:30.829Z,6.00
2019-02-22T11:36:58.560Z,5.70
2019-02-22T11:39:25.696Z,6.57
2019-02-22T11:41:53.245Z,6.60
2019-02-22T11:44:20.229Z,6.63
2019-02-22T11:46:47.181Z,6.70
2019-02-22T11:49:13.989Z,6.03
2019-02-22T11:51:41.357Z,6.53
2019-02-22T11:54:08.221Z,7.87
2019-02-22T11:56:35.541Z,5.87
2019-02-22T11:59:02.848Z,6.20
2019-02-22T12:01:30.120Z,5.70
2019-02-22T12:03:57.753Z,6.30
2019-02-22T12:06:24.825Z,6.40
2019-02-22T12:08:51.901Z,6.57
2019-02-22T12:11:18.836Z,5.40
2019-02-22T12:13:46.067Z,5.70
2019-02-22T12:16:13.481Z,5.83
2019-02-22T12:18:40.410Z,5.70
2019-02-22T12:21:07.384Z,6.37
2019-02-22T12:23:34.759Z,6.30
2019-02-22T12:26:01.725Z,6.13
2019-02-22T12:28:29.021Z,8.87
2019-02-22T12:30:56.531Z,4.93
2019-02-22T12:33:23.353Z,6.40
2019-02-22T12:35:50.958Z,4.90
2019-02-22T12:38:18.557Z,6.40
2019-02-22T12:40:45.965Z,6.47
2019-02-22T12:43:12.944Z,5.03
2019-02-22T12:45:40.131Z,4.90
2019-02-22T12:48:06.957Z,5.70
2019-02-22T12:50:33.871Z,5.67
2019-02-22T12:53:01.081Z,5.53
2019-02-22T12:55:28.072Z,5.83
2019-02-22T12:57:54.924Z,5.70
2019-02-22T13:00:22.313Z,5.40
2019-02-22T13:02:49.247Z,4.27
2019-02-22T13:05:16.315Z,5.23
2019-02-22T13:07:43.924Z,5.67
2019-02-22T13:10:11.186Z,5.50
2019-02-22T13:12:38.469Z,5.53
2019-02-22T13:15:14.245Z,5.13
2019-02-22T13:17:36.001Z,11.20
2019-02-22T13:20:03.229Z,8.00
2019-02-22T13:22:30.435Z,6.23
2019-02-22T13:24:58.097Z,6.53
2019-02-22T13:27:24.914Z,5.17
2019-02-22T13:29:51.837Z,7.07
2019-02-22T13:32:18.685Z,7.90
2019-02-22T13:34:45.752Z,14.10
2019-02-22T13:37:12.575Z,13.70
2019-02-22T13:39:39.422Z,9.60
2019-02-22T13:42:06.338Z,9.90
2019-02-22T13:44:33.176Z,10.33
2019-02-22T13:47:00.180Z,8.37
2019-02-22T13:49:27.209Z,6.30
2019-02-22T13:51:54.294Z,6.60
2019-02-22T13:54:21.225Z,5.70
2019-02-22T13:56:48.309Z,5.40
2019-02-22T13:59:15.394Z,5.63
2019-02-22T14:01:42.229Z,7.00
2019-02-22T14:04:09.857Z,6.17
2019-02-22T14:06:36.673Z,6.07
2019-02-22T14:09:04.712Z,7.67
2019-02-22T14:11:31.714Z,7.10
2019-02-22T14:13:58.529Z,6.60
2019-02-22T14:16:25.792Z,5.87
2019-02-22T14:18:52.607Z,5.10
2019-02-22T14:21:19.731Z,6.13
2019-02-22T14:23:47.186Z,5.70
2019-02-22T14:26:14.160Z,6.57
2019-02-22T14:28:40.985Z,6.00
2019-02-22T14:31:07.809Z,5.30
2019-02-22T14:33:35.020Z,8.30
2019-02-22T14:36:01.850Z,8.30
2019-02-22T14:38:28.741Z,7.30
2019-02-22T14:40:56.008Z,7.10
2019-02-22T14:43:23.089Z,7.73
2019-02-22T14:45:53.080Z,8.83
2019-02-22T14:48:19.258Z,7.83
2019-02-22T14:50:46.277Z,10.00
2019-02-22T14:53:19.691Z,10.30
2019-02-22T14:55:42.061Z,11.17
2019-02-22T14:58:08.977Z,14.00
2019-02-22T15:00:36.286Z,13.73
2019-02-22T15:03:03.438Z,18.70
2019-02-22T15:05:30.870Z,16.27
2019-02-22T15:07:57.679Z,16.53
2019-02-22T15:10:24.496Z,15.93
2019-02-22T15:12:51.344Z,11.10
2019-02-22T15:15:19.461Z,27.40
2019-02-22T15:17:49.197Z,9.30
2019-02-22T15:20:16.357Z,8.53
2019-02-22T15:22:43.278Z,7.37
2019-02-22T15:25:10.325Z,10.33
2019-02-22T15:27:37.544Z,9.03
2019-02-22T15:30:04.708Z,7.60
2019-02-22T15:32:31.526Z,8.03
2019-02-22T15:34:58.589Z,6.00
2019-02-22T15:37:25.496Z,5.80
2019-02-22T15:39:52.712Z,6.70
2019-02-22T15:42:19.687Z,8.47
2019-02-22T15:44:46.852Z,6.57
2019-02-22T15:47:13.701Z,6.43
2019-02-22T15:49:40.841Z,4.50
2019-02-22T15:52:10.253Z,5.03
2019-02-22T15:54:36.876Z,3.30
2019-02-22T15:57:03.925Z,6.23
2019-02-22T15:59:31.577Z,5.80
2019-02-22T16:01:59.237Z,3.87
2019-02-22T16:04:58.956Z,3.40
2019-02-22T16:07:27.592Z,3.23
2019-02-22T16:09:54.989Z,2.60
2019-02-22T16:12:22.345Z,4.87
2019-02-22T16:14:49.712Z,4.17
2019-02-22T16:17:17.005Z,4.13
2019-02-22T16:19:44.173Z,4.50
2019-02-22T16:22:11.397Z,4.03
2019-02-22T16:24:38.592Z,3.33
2019-02-22T16:27:05.657Z,3.63
2019-02-22T16:29:33.035Z,3.67
2019-02-22T16:32:00.094Z,3.50
2019-02-22T16:34:27.269Z,2.80
2019-02-22T16:36:54.441Z,2.63
2019-02-22T16:39:21.397Z,2.30
2019-02-22T16:41:48.314Z,2.60
2019-02-22T16:44:15.228Z,2.20
2019-02-22T16:46:42.041Z,2.20
2019-02-22T16:49:08.966Z,2.53
2019-02-22T16:51:35.780Z,2.23
2019-02-22T16:54:02.713Z,3.90
2019-02-22T16:56:29.872Z,3.60
2019-02-22T16:58:56.725Z,10.77
2019-02-22T17:01:23.788Z,4.70
2019-02-22T17:03:50.608Z,3.23
2019-02-22T17:06:17.560Z,5.40
2019-02-22T17:08:44.665Z,7.13
2019-02-22T17:11:11.652Z,4.80
2019-02-22T17:13:39.069Z,43.63
2019-02-22T17:16:06.246Z,20.77
2019-02-22T17:18:33.045Z,17.67
2019-02-22T17:20:59.881Z,10.20
2019-02-22T17:23:26.793Z,9.93
2019-02-22T17:25:53.621Z,11.50
2019-02-22T17:28:20.544Z,15.00
2019-02-22T17:30:47.373Z,13.67
2019-02-22T17:33:14.438Z,8.93
2019-02-22T17:35:41.872Z,10.20
2019-02-22T17:38:08.801Z,18.83
2019-02-22T17:40:35.691Z,21.77
2019-02-22T17:43:03.244Z,12.93
2019-02-22T17:45:30.077Z,14.60
2019-02-22T17:47:57.153Z,15.40
2019-02-22T17:50:24.076Z,11.30
2019-02-22T17:52:51.393Z,10.33
2019-02-22T17:55:18.944Z,15.13
2019-02-22T17:57:45.784Z,19.80
2019-02-22T18:00:15.314Z,19.30
2019-02-22T18:02:42.869Z,9.17
2019-02-22T18:05:10.088Z,7.07
2019-02-22T18:07:37.289Z,6.73
2019-02-22T18:10:04.432Z,9.60
2019-02-22T18:12:31.557Z,7.87
2019-02-22T18:14:58.425Z,6.73
2019-02-22T18:17:25.349Z,6.70
2019-02-22T18:19:52.371Z,4.53
2019-02-22T18:22:25.678Z,4.20
2019-02-22T18:24:48.273Z,4.10
2019-02-22T18:27:15.482Z,5.07
2019-02-22T18:29:42.853Z,4.27
2019-02-22T18:32:10.277Z,4.70
2019-02-22T18:34:37.673Z,4.30
2019-02-22T18:37:05.080Z,4.33
2019-02-22T18:39:32.009Z,6.30
2019-02-22T18:41:59.592Z,6.20
2019-02-22T18:44:26.856Z,7.33
2019-02-22T18:46:53.749Z,6.77
2019-02-22T18:49:21.075Z,4.60
2019-02-22T18:51:48.345Z,4.20
2019-02-22T18:54:15.416Z,5.17
2019-02-22T18:56:42.247Z,3.90
2019-02-22T18:59:09.305Z,6.60
2019-02-22T19:01:36.120Z,7.87
2019-02-22T19:04:03.388Z,5.70
2019-02-22T19:06:30.472Z,5.20
2019-02-22T19:08:57.378Z,4.97
2019-02-22T19:11:24.453Z,6.80
2019-02-22T19:13:51.525Z,9.18
2019-02-22T19:16:18.566Z,5.57
2019-02-22T19:18:45.417Z,7.03
2019-02-22T19:21:12.259Z,9.00
2019-02-22T19:23:39.320Z,8.40
2019-02-22T19:26:06.265Z,6.50
2019-02-22T19:28:33.292Z,7.22
2019-02-22T19:31:00.148Z,8.73
2019-02-22T19:33:27.277Z,8.60
2019-02-22T19:35:54.460Z,7.17
2019-02-22T19:38:21.269Z,7.90
2019-02-22T19:40:48.670Z,7.08
2019-02-22T19:43:15.629Z,9.35
2019-02-22T19:45:42.680Z,8.85
2019-02-22T19:48:09.905Z,7.47
2019-02-22T19:50:41.463Z,9.28
2019-02-22T19:53:05.737Z,9.45
2019-02-22T19:55:32.912Z,10.32
2019-02-22T19:58:00.116Z,10.90
2019-02-22T20:00:26.941Z,12.85
2019-02-22T20:02:54.026Z,9.78
2019-02-22T20:05:21.304Z,8.55
2019-02-22T20:07:48.376Z,9.83
2019-02-22T20:10:18.224Z,9.95
2019-02-22T20:12:44.749Z,12.00
2019-02-22T20:15:12.903Z,11.57
2019-02-22T20:17:40.393Z,11.15
2019-02-22T20:20:09.626Z,10.55
2019-02-22T20:22:36.445Z,10.13
2019-02-22T20:25:03.661Z,10.30
2019-02-22T20:27:30.474Z,10.20
2019-02-22T20:29:57.313Z,12.68
2019-02-22T20:32:24.377Z,13.10
2019-02-22T20:34:51.601Z,11.20
2019-02-22T20:37:18.653Z,11.38
2019-02-22T20:39:45.820Z,14.05
2019-02-22T20:42:13.154Z,14.13
2019-02-22T20:44:39.984Z,14.73
2019-02-22T20:47:07.237Z,13.90
2019-02-22T20:49:34.307Z,12.73
2019-02-22T20:52:01.317Z,13.62
2019-02-22T20:54:28.180Z,16.35
2019-02-22T20:56:55.512Z,14.60
2019-02-22T20:59:22.632Z,11.93
2019-02-22T21:01:49.493Z,13.85
2019-02-22T21:04:16.574Z,12.20
2019-02-22T21:06:43.409Z,12.50
2019-02-22T21:09:10.225Z,12.90
2019-02-22T21:11:37.062Z,12.78
2019-02-22T21:14:04.134Z,14.03
2019-02-22T21:16:30.972Z,13.58
2019-02-22T21:18:58.385Z,15.45
2019-02-22T21:21:25.469Z,12.73
2019-02-22T21:23:52.287Z,12.40
2019-02-22T21:26:19.366Z,13.88
2019-02-22T21:28:46.450Z,13.10
2019-02-22T21:31:13.804Z,15.08
2019-02-22T21:33:40.616Z,14.07
2019-02-22T21:36:07.946Z,14.93
2019-02-22T21:38:34.748Z,13.83
2019-02-22T21:41:01.593Z,16.52
2019-02-22T21:43:28.424Z,14.50
2019-02-22T21:45:55.496Z,13.85
2019-02-22T21:48:27.648Z,15.60
2019-02-22T21:50:51.440Z,14.13
2019-02-22T21:53:18.620Z,14.43
2019-02-22T21:55:45.713Z,15.03
2019-02-22T21:58:12.722Z,14.10
2019-02-22T22:00:39.541Z,14.70
2019-02-22T22:03:06.358Z,14.03
2019-02-22T22:05:33.181Z,14.10
2019-02-22T22:08:00.029Z,14.50
2019-02-22T22:10:27.247Z,13.98
2019-02-22T22:12:54.601Z,13.93
2019-02-22T22:15:21.865Z,13.25
2019-02-22T22:17:49.471Z,11.70
2019-02-22T22:20:16.381Z,12.23
2019-02-22T22:22:43.769Z,12.10
2019-02-22T22:25:10.794Z,13.43
2019-02-22T22:27:38.092Z,11.80
2019-02-22T22:30:05.637Z,12.68
2019-02-22T22:32:32.458Z,13.65
2019-02-22T22:34:59.301Z,15.40
2019-02-22T22:37:26.120Z,15.50
2019-02-22T22:39:53.277Z,13.85
2019-02-22T22:42:20.194Z,13.18
2019-02-22T22:44:47.253Z,14.60
2019-02-22T22:47:14.433Z,13.45
2019-02-22T22:49:41.233Z,13.98
2019-02-22T22:52:08.056Z,14.80
2019-02-22T22:54:34.908Z,12.88
2019-02-22T22:57:01.984Z,15.13
2019-02-22T22:59:28.933Z,12.95
2019-02-22T23:01:56.036Z,12.90
2019-02-22T23:04:23.124Z,13.70
2019-02-22T23:06:50.191Z,13.35
2019-02-22T23:09:20.088Z,12.37
2019-02-22T23:11:47.076Z,14.00
2019-02-22T23:14:14.293Z,11.63
2019-02-22T23:16:41.355Z,13.48
2019-02-22T23:19:08.532Z,13.00
2019-02-22T23:21:35.549Z,13.62
2019-02-22T23:24:03.566Z,12.78
2019-02-22T23:26:30.373Z,13.15
2019-02-22T23:28:57.189Z,13.70
2019-02-22T23:31:24.437Z,15.18
2019-02-22T23:33:51.611Z,13.20
2019-02-22T23:36:18.426Z,13.40
2019-02-22T23:38:45.269Z,14.18
2019-02-22T23:41:12.088Z,12.40
2019-02-22T23:43:38.907Z,12.25
2019-02-22T23:46:06.000Z,13.40
2019-02-22T23:48:32.829Z,13.60
2019-02-22T23:50:59.711Z,12.20
2019-02-22T23:53:26.793Z,12.03
2019-02-22T23:55:53.596Z,12.55
2019-02-22T23:58:20.688Z,11.43
